Time;durP1;ratioP1;P1;durP2;ratioP2;P2;SDS_P1;SDS_P2;PMS_P1;PMS_P2;Temp;Humidity;BMP_temperature;BMP_pressure;BME280_temperature;BME280_humidity;BME280_pressure;Samples;Min_cycle;Max_cycle;Signal;HPM_P1;HPM_P2
2023/04/16 00:00:50;;;;;;;5.78;5.28;;;7.50;99.90;;;;;;5052587;28;20179;-75
2023/04/16 00:03:15;;;;;;;6.30;5.70;;;7.50;99.90;;;;;;5032351;28;20647;-75
2023/04/16 00:05:41;;;;;;;5.60;5.10;;;7.50;99.90;;;;;;5036828;28;20202;-75
2023/04/16 00:08:07;;;;;;;6.10;5.60;;;7.50;99.90;;;;;;5043793;28;20714;-75
2023/04/16 00:10:34;;;;;;;6.47;5.97;;;7.40;99.90;;;;;;5053540;28;20180;-75
2023/04/16 00:13:00;;;;;;;6.68;6.18;;;7.50;99.90;;;;;;5033430;28;20278;-75
2023/04/16 00:15:25;;;;;;;7.60;6.85;;;7.40;99.90;;;;;;5047000;28;20295;-75
2023/04/16 00:17:51;;;;;;;6.20;5.78;;;7.50;99.90;;;;;;5047447;28;20215;-75
2023/04/16 00:20:16;;;;;;;6.97;6.38;;;7.50;99.90;;;;;;5041866;28;20304;-75
2023/04/16 00:22:42;;;;;;;6.63;6.05;;;7.50;99.90;;;;;;5048567;28;20221;-75
2023/04/16 00:25:08;;;;;;;6.70;6.10;;;7.50;99.90;;;;;;5034397;28;20661;-75
2023/04/16 00:27:33;;;;;;;6.57;5.97;;;7.40;99.90;;;;;;5052033;28;20364;-76
2023/04/16 00:29:59;;;;;;;6.63;6.03;;;7.50;99.90;;;;;;5051066;28;20234;-76
2023/04/16 00:32:25;;;;;;;7.40;6.70;;;7.40;99.90;;;;;;5047972;28;20187;-75
2023/04/16 00:34:50;;;;;;;6.78;6.20;;;7.50;99.90;;;;;;5051055;28;20200;-76
2023/04/16 00:37:16;;;;;;;6.82;6.22;;;7.50;99.90;;;;;;5049759;28;20215;-76
2023/04/16 00:39:41;;;;;;;6.18;5.68;;;7.50;99.90;;;;;;5032076;28;20656;-76
2023/04/16 00:42:07;;;;;;;6.93;6.22;;;7.40;99.90;;;;;;5043772;28;20179;-76
2023/04/16 00:44:34;;;;;;;6.47;5.55;;;7.40;99.90;;;;;;5047811;28;20242;-76
2023/04/16 00:47:01;;;;;;;7.07;6.40;;;7.50;99.90;;;;;;5044250;28;20171;-76
2023/04/16 00:49:28;;;;;;;6.97;6.20;;;7.50;99.90;;;;;;5035541;28;20187;-76
2023/04/16 00:51:54;;;;;;;6.85;6.15;;;7.50;99.90;;;;;;5051057;28;20183;-76
2023/04/16 00:54:20;;;;;;;8.43;6.55;;;7.50;99.90;;;;;;5051472;28;20199;-76
2023/04/16 00:56:46;;;;;;;7.25;6.55;;;7.50;99.90;;;;;;5046878;28;20215;-76
2023/04/16 00:59:11;;;;;;;7.47;6.65;;;7.40;99.90;;;;;;5048614;28;20172;-76
2023/04/16 01:01:37;;;;;;;6.85;6.25;;;7.40;99.90;;;;;;5050221;28;20279;-76
2023/04/16 01:04:03;;;;;;;6.78;6.18;;;7.50;99.90;;;;;;5053425;28;20693;-76
2023/04/16 01:06:29;;;;;;;6.60;6.00;;;7.50;99.90;;;;;;5055783;28;20191;-76
2023/04/16 01:08:54;;;;;;;7.22;6.53;;;7.50;99.90;;;;;;5033137;28;20188;-76
2023/04/16 01:11:20;;;;;;;7.72;6.57;;;7.50;99.90;;;;;;5035394;28;20563;-75
2023/04/16 01:13:46;;;;;;;6.70;6.18;;;7.50;99.90;;;;;;5051758;28;20187;-76
2023/04/16 01:16:11;;;;;;;6.32;5.82;;;7.50;99.90;;;;;;5054971;28;20269;-76
2023/04/16 01:18:38;;;;;;;6.93;6.40;;;7.50;99.90;;;;;;5042745;28;20802;-76
2023/04/16 01:21:04;;;;;;;6.50;5.97;;;7.50;99.90;;;;;;5051841;28;20189;-76
2023/04/16 01:23:30;;;;;;;7.38;6.65;;;7.50;99.90;;;;;;5047226;28;21743;-76
2023/04/16 01:25:56;;;;;;;6.30;5.80;;;7.50;99.90;;;;;;5050288;28;20196;-76
2023/04/16 01:28:22;;;;;;;6.95;6.35;;;7.50;99.90;;;;;;5040015;28;20255;-76
2023/04/16 01:30:48;;;;;;;6.80;6.10;;;7.60;99.90;;;;;;5048885;28;20282;-76
2023/04/16 01:33:14;;;;;;;6.78;6.10;;;7.50;99.90;;;;;;5051030;28;20251;-76
2023/04/16 01:35:40;;;;;;;6.45;5.93;;;7.50;99.90;;;;;;5044832;28;20694;-76
2023/04/16 01:38:07;;;;;;;6.22;5.72;;;7.50;99.90;;;;;;5045209;28;20188;-76
2023/04/16 01:40:34;;;;;;;6.40;5.82;;;7.50;99.90;;;;;;5046736;28;20180;-76
2023/04/16 01:43:00;;;;;;;6.22;5.70;;;7.50;99.90;;;;;;5047845;28;20203;-74
2023/04/16 01:45:25;;;;;;;5.65;5.15;;;7.50;99.90;;;;;;5048804;28;20677;-75
2023/04/16 01:47:51;;;;;;;5.75;5.25;;;7.50;99.90;;;;;;5050132;28;20191;-75
2023/04/16 01:50:18;;;;;;;5.60;5.20;;;7.50;99.90;;;;;;5043956;28;20675;-75
2023/04/16 01:52:43;;;;;;;5.18;4.78;;;7.50;99.90;;;;;;5034077;28;20183;-74
2023/04/16 01:55:09;;;;;;;5.40;5.00;;;7.40;99.90;;;;;;5050908;28;20248;-74
2023/04/16 01:57:35;;;;;;;4.95;4.55;;;7.40;99.90;;;;;;5044099;28;20179;-74
2023/04/16 02:00:02;;;;;;;5.22;4.72;;;7.40;99.90;;;;;;5041381;28;20304;-74
2023/04/16 02:02:28;;;;;;;5.25;4.85;;;7.30;99.90;;;;;;5028575;28;20550;-74
2023/04/16 02:04:54;;;;;;;4.70;4.40;;;7.30;99.90;;;;;;5030675;28;20203;-74
2023/04/16 02:07:20;;;;;;;4.60;4.30;;;7.30;99.90;;;;;;5047665;28;20195;-74
2023/04/16 02:09:45;;;;;;;4.65;4.25;;;7.30;99.90;;;;;;5052165;28;20188;-74
2023/04/16 02:12:11;;;;;;;4.80;4.40;;;7.30;99.90;;;;;;5051115;28;20236;-74
2023/04/16 02:14:36;;;;;;;7.32;5.18;;;7.30;99.90;;;;;;5043255;28;20583;-74
2023/04/16 02:17:03;;;;;;;6.32;5.72;;;7.40;99.90;;;;;;5048865;28;20175;-74
2023/04/16 02:19:28;;;;;;;5.63;5.07;;;7.40;99.90;;;;;;5049448;28;20648;-74
2023/04/16 02:21:54;;;;;;;4.85;4.43;;;7.30;99.90;;;;;;5044235;28;20215;-74
2023/04/16 02:24:20;;;;;;;5.45;4.95;;;7.30;99.90;;;;;;5053498;28;20194;-74
2023/04/16 02:26:46;;;;;;;4.43;4.03;;;7.40;99.90;;;;;;5049768;28;20180;-75
2023/04/16 02:29:12;;;;;;;4.65;4.25;;;7.30;99.90;;;;;;5042440;28;20179;-75
2023/04/16 02:31:38;;;;;;;4.57;4.18;;;7.40;99.90;;;;;;5046300;28;20179;-75
2023/04/16 02:34:04;;;;;;;4.15;3.85;;;7.40;99.90;;;;;;5051519;28;20235;-74
2023/04/16 02:36:30;;;;;;;3.70;3.50;;;7.30;99.90;;;;;;5050151;28;20206;-75
2023/04/16 02:38:57;;;;;;;4.32;4.03;;;7.40;99.90;;;;;;5040349;28;20176;-75
2023/04/16 02:41:22;;;;;;;3.72;3.50;;;7.30;99.90;;;;;;5054154;28;20180;-75
2023/04/16 02:43:48;;;;;;;3.83;3.45;;;7.40;99.90;;;;;;5049006;28;20179;-75
2023/04/16 02:46:14;;;;;;;3.90;3.70;;;7.40;99.90;;;;;;5051470;28;20573;-75
2023/04/16 02:48:39;;;;;;;4.30;4.00;;;7.40;99.90;;;;;;5048930;28;20183;-74
2023/04/16 02:51:05;;;;;;;3.95;3.65;;;7.40;99.90;;;;;;5045662;28;20650;-74
2023/04/16 02:53:31;;;;;;;3.55;3.28;;;7.40;99.90;;;;;;5048626;28;20191;-75
2023/04/16 02:55:56;;;;;;;3.50;3.30;;;7.40;99.90;;;;;;5055541;28;20215;-74
2023/04/16 02:58:24;;;;;;;3.53;3.33;;;7.40;99.90;;;;;;5047573;28;20184;-75
2023/04/16 03:00:50;;;;;;;3.28;3.08;;;7.40;99.90;;;;;;5045198;28;20176;-74
2023/04/16 03:03:16;;;;;;;3.92;3.72;;;7.40;99.90;;;;;;5053185;28;20225;-75
2023/04/16 03:05:41;;;;;;;3.63;3.42;;;7.40;99.90;;;;;;5049165;28;20671;-75
2023/04/16 03:08:07;;;;;;;3.63;3.33;;;7.40;99.90;;;;;;5043451;28;20223;-74
2023/04/16 03:10:34;;;;;;;3.33;3.13;;;7.60;99.90;;;;;;5050582;28;20186;-75
2023/04/16 03:12:59;;;;;;;3.45;3.25;;;7.60;99.90;;;;;;5048637;28;20184;-75
2023/04/16 03:15:26;;;;;;;3.03;2.90;;;7.50;99.90;;;;;;5031751;28;20211;-75
2023/04/16 03:17:52;;;;;;;3.60;3.33;;;7.40;99.90;;;;;;5042528;28;20233;-74
2023/04/16 03:20:18;;;;;;;3.17;3.00;;;7.40;99.90;;;;;;5053855;28;20241;-74
2023/04/16 03:22:43;;;;;;;3.72;3.40;;;7.40;99.90;;;;;;5048825;28;20226;-74
2023/04/16 03:25:09;;;;;;;3.50;3.17;;;7.40;99.90;;;;;;5055195;28;20720;-75
2023/04/16 03:27:34;;;;;;;3.67;3.17;;;7.30;99.90;;;;;;5053452;28;20176;-75
2023/04/16 03:30:01;;;;;;;3.42;3.22;;;7.40;99.90;;;;;;5052161;28;20267;-75
2023/04/16 03:32:26;;;;;;;2.90;2.70;;;7.40;99.90;;;;;;5048158;28;20184;-75
2023/04/16 03:34:52;;;;;;;3.10;2.90;;;7.30;99.90;;;;;;5046973;28;20279;-75
2023/04/16 03:37:18;;;;;;;3.13;2.92;;;7.30;99.90;;;;;;5053782;28;20282;-75
2023/04/16 03:39:44;;;;;;;3.22;2.90;;;7.30;99.90;;;;;;5052795;28;20183;-75
2023/04/16 03:42:09;;;;;;;3.17;2.88;;;7.30;99.90;;;;;;5061066;28;20176;-75
2023/04/16 03:44:35;;;;;;;3.28;3.08;;;7.30;99.90;;;;;;5051932;28;20686;-75
2023/04/16 03:47:01;;;;;;;3.38;3.17;;;7.40;99.90;;;;;;5048640;28;20212;-75
2023/04/16 03:49:26;;;;;;;2.95;2.85;;;7.30;99.90;;;;;;5053038;28;20179;-75
2023/04/16 03:51:52;;;;;;;3.10;2.90;;;7.30;99.90;;;;;;5042814;28;20192;-76
2023/04/16 03:54:17;;;;;;;3.55;3.35;;;7.30;99.90;;;;;;5033600;28;20255;-76
2023/04/16 03:56:43;;;;;;;3.35;3.13;;;7.30;99.90;;;;;;5048556;28;20251;-76
2023/04/16 03:59:09;;;;;;;2.97;2.80;;;7.30;99.90;;;;;;5050948;28;20180;-75
2023/04/16 04:01:35;;;;;;;3.65;3.40;;;7.30;99.90;;;;;;5050873;28;20171;-75
2023/04/16 04:04:00;;;;;;;3.38;3.17;;;7.30;99.90;;;;;;5051054;28;20203;-75
2023/04/16 04:06:26;;;;;;;3.30;3.10;;;7.30;99.90;;;;;;5049385;28;20188;-75
2023/04/16 04:08:52;;;;;;;3.55;3.30;;;7.30;99.90;;;;;;5046815;28;20229;-75
2023/04/16 04:11:18;;;;;;;3.65;3.45;;;7.40;99.90;;;;;;5049407;28;20183;-75
2023/04/16 04:13:43;;;;;;;3.35;3.15;;;7.30;99.90;;;;;;5049464;28;20180;-75
2023/04/16 04:16:09;;;;;;;3.42;3.22;;;7.30;99.90;;;;;;5044115;28;20208;-75
2023/04/16 04:18:35;;;;;;;3.50;3.30;;;7.30;99.90;;;;;;5044238;28;20180;-75
2023/04/16 04:21:07;;;;;;;3.35;3.15;;;7.30;99.90;;;;;;5050593;28;20227;-75
2023/04/16 04:23:34;;;;;;;3.60;3.30;;;7.30;99.90;;;;;;5050203;28;20221;-75
2023/04/16 04:26:02;;;;;;;3.55;3.25;;;7.30;99.90;;;;;;5049952;28;20274;-75
2023/04/16 04:28:31;;;;;;;3.90;3.50;;;7.40;99.90;;;;;;5051643;28;20210;-74
2023/04/16 04:30:58;;;;;;;3.10;2.90;;;7.40;99.90;;;;;;5051569;28;20180;-74
2023/04/16 04:33:25;;;;;;;4.13;3.72;;;7.30;99.90;;;;;;5053030;28;20202;-75
2023/04/16 04:35:51;;;;;;;3.45;3.15;;;7.30;99.90;;;;;;5046108;28;20598;-77
2023/04/16 04:38:21;;;;;;;2.83;2.63;;;7.30;99.90;;;;;;5049522;28;20184;-76
2023/04/16 04:40:47;;;;;;;3.63;3.33;;;7.30;99.90;;;;;;5051499;28;20647;-76
2023/04/16 04:43:13;;;;;;;3.38;3.17;;;7.50;99.90;;;;;;5047545;28;20195;-76
2023/04/16 04:45:39;;;;;;;3.50;3.22;;;7.50;99.90;;;;;;5044997;28;20208;-76
2023/04/16 04:48:05;;;;;;;3.72;3.42;;;7.60;99.90;;;;;;5045535;28;20264;-78
2023/04/16 04:50:30;;;;;;;3.25;3.08;;;7.70;99.90;;;;;;5049591;28;20314;-73
2023/04/16 04:52:56;;;;;;;2.97;2.75;;;7.80;99.90;;;;;;5050508;28;20191;-74
2023/04/16 04:55:22;;;;;;;3.00;2.80;;;7.80;99.90;;;;;;5049030;28;20428;-74
2023/04/16 04:57:48;;;;;;;2.75;2.65;;;7.90;99.90;;;;;;5046913;28;20180;-73
2023/04/16 05:00:14;;;;;;;3.03;2.83;;;8.00;99.90;;;;;;5044906;28;20233;-74
2023/04/16 05:02:40;;;;;;;3.60;3.30;;;8.10;99.90;;;;;;5044906;28;20258;-73
2023/04/16 05:05:06;;;;;;;3.47;3.03;;;8.10;99.90;;;;;;5048331;28;20261;-75
2023/04/16 05:07:31;;;;;;;3.28;3.08;;;8.10;99.90;;;;;;5047198;28;20196;-75
2023/04/16 05:09:57;;;;;;;2.97;2.78;;;8.00;99.90;;;;;;5028467;28;20279;-73
2023/04/16 05:12:22;;;;;;;3.10;2.92;;;8.00;99.90;;;;;;5050650;28;20187;-74
2023/04/16 05:14:48;;;;;;;3.17;2.88;;;8.00;99.90;;;;;;5041555;28;20208;-73
2023/04/16 05:17:14;;;;;;;2.97;2.78;;;8.10;99.90;;;;;;5043994;28;20188;-73
2023/04/16 05:19:39;;;;;;;3.25;3.08;;;8.10;99.90;;;;;;5034071;28;20180;-73
2023/04/16 05:22:05;;;;;;;3.45;3.25;;;8.00;99.90;;;;;;5046146;28;20186;-74
2023/04/16 05:24:31;;;;;;;3.15;2.97;;;8.10;99.90;;;;;;5044336;28;20207;-74
2023/04/16 05:26:56;;;;;;;4.30;3.03;;;8.20;99.90;;;;;;5053516;28;20191;-73
2023/04/16 05:29:22;;;;;;;3.25;3.00;;;8.10;99.90;;;;;;5050167;28;20186;-73
2023/04/16 05:31:48;;;;;;;3.33;3.13;;;8.20;99.90;;;;;;5049587;28;20180;-75
2023/04/16 05:34:14;;;;;;;3.55;3.35;;;8.30;99.90;;;;;;5044192;28;20286;-74
2023/04/16 05:36:39;;;;;;;2.50;2.40;;;8.30;99.90;;;;;;5046089;28;20225;-74
2023/04/16 05:39:06;;;;;;;2.85;2.65;;;8.30;99.90;;;;;;5054141;28;20466;-75
2023/04/16 05:41:32;;;;;;;3.17;2.97;;;8.40;99.90;;;;;;5043371;28;20623;-73
2023/04/16 05:43:57;;;;;;;2.47;2.38;;;8.40;99.90;;;;;;5051978;28;20330;-76
2023/04/16 05:46:23;;;;;;;2.65;2.53;;;8.50;99.90;;;;;;5038226;28;20186;-74
2023/04/16 05:48:49;;;;;;;3.00;2.70;;;8.50;99.90;;;;;;5041229;28;20274;-72
2023/04/16 05:51:14;;;;;;;2.72;2.63;;;8.50;99.90;;;;;;5029527;28;20192;-73
2023/04/16 05:53:40;;;;;;;3.33;2.80;;;8.60;99.90;;;;;;5043685;28;20180;-74
2023/04/16 05:56:06;;;;;;;2.70;2.60;;;8.70;99.90;;;;;;5049933;28;20250;-73
2023/04/16 05:58:32;;;;;;;2.72;2.53;;;8.90;99.90;;;;;;5043150;28;20190;-74
2023/04/16 06:00:58;;;;;;;2.75;2.45;;;9.10;99.90;;;;;;5046319;28;20180;-74
2023/04/16 06:03:24;;;;;;;2.78;2.58;;;9.20;99.90;;;;;;5030840;28;20184;-73
2023/04/16 06:05:49;;;;;;;2.58;2.40;;;9.30;99.90;;;;;;5044797;28;20201;-73
2023/04/16 06:08:15;;;;;;;2.72;2.50;;;9.20;99.90;;;;;;5046208;28;20189;-75
2023/04/16 06:10:40;;;;;;;2.78;2.67;;;9.20;99.90;;;;;;5035844;28;20192;-74
2023/04/16 06:13:06;;;;;;;2.72;2.53;;;9.30;99.90;;;;;;5044576;28;20176;-72
2023/04/16 06:15:31;;;;;;;2.40;2.30;;;9.50;99.90;;;;;;5039400;28;20312;-73
2023/04/16 06:17:57;;;;;;;2.58;2.47;;;9.50;99.90;;;;;;5043633;28;20180;-73
2023/04/16 06:20:23;;;;;;;2.70;2.60;;;9.60;99.90;;;;;;5036584;28;20197;-74
2023/04/16 06:22:49;;;;;;;2.45;2.35;;;9.80;99.90;;;;;;5046168;28;20184;-73
2023/04/16 06:25:14;;;;;;;3.95;2.80;;;10.00;99.90;;;;;;5046669;28;20223;-73
2023/04/16 06:27:40;;;;;;;2.72;2.53;;;10.30;99.90;;;;;;5030389;28;20172;-73
2023/04/16 06:30:11;;;;;;;2.75;2.63;;;10.60;99.90;;;;;;5054058;28;20188;-76
2023/04/16 06:32:37;;;;;;;3.00;2.80;;;10.80;99.90;;;;;;5043946;28;20182;-75
2023/04/16 06:35:03;;;;;;;2.60;2.50;;;11.10;99.90;;;;;;5052208;28;20303;-73
2023/04/16 06:37:29;;;;;;;3.03;2.83;;;11.10;99.90;;;;;;5045216;28;20187;-76
2023/04/16 06:39:54;;;;;;;2.15;2.05;;;11.40;99.90;;;;;;5042400;28;20188;-76
2023/04/16 06:42:20;;;;;;;2.60;2.50;;;11.30;99.90;;;;;;5041024;28;20181;-74
2023/04/16 06:44:46;;;;;;;2.20;2.10;;;11.50;99.90;;;;;;5049444;28;20559;-75
2023/04/16 06:47:12;;;;;;;2.78;2.10;;;11.50;99.90;;;;;;5045249;28;20177;-74
2023/04/16 06:49:38;;;;;;;2.33;2.22;;;10.70;99.90;;;;;;5043739;28;20749;-74
2023/04/16 06:52:04;;;;;;;2.05;1.98;;;11.00;99.90;;;;;;5047458;28;20187;-75
2023/04/16 06:54:30;;;;;;;1.88;1.88;;;11.20;99.90;;;;;;5049772;28;20304;-75
2023/04/16 06:56:56;;;;;;;2.00;1.90;;;11.40;99.90;;;;;;5047210;28;20348;-74
2023/04/16 06:59:21;;;;;;;1.92;1.83;;;11.70;99.90;;;;;;5029764;28;20445;-76
2023/04/16 07:01:47;;;;;;;2.42;2.33;;;11.70;99.90;;;;;;5048378;28;20187;-74
2023/04/16 07:04:13;;;;;;;2.40;2.30;;;12.10;99.90;;;;;;5047007;28;20332;-74
2023/04/16 07:06:38;;;;;;;2.35;2.25;;;12.40;99.90;;;;;;5049419;28;20219;-78
2023/04/16 07:09:04;;;;;;;2.28;2.17;;;12.60;99.90;;;;;;5047073;28;20180;-75
2023/04/16 07:11:30;;;;;;;2.60;2.50;;;12.30;99.90;;;;;;5045477;28;20191;-75
2023/04/16 07:13:56;;;;;;;2.78;2.67;;;11.90;99.90;;;;;;5046670;28;20281;-75
2023/04/16 07:16:22;;;;;;;2.00;1.90;;;11.90;99.90;;;;;;5045559;28;20201;-76
2023/04/16 07:18:48;;;;;;;2.05;2.00;;;11.80;99.90;;;;;;5041565;28;20177;-76
2023/04/16 07:21:14;;;;;;;2.03;1.92;;;12.00;99.90;;;;;;5041605;28;20592;-75
2023/04/16 07:23:40;;;;;;;2.20;2.10;;;12.30;99.90;;;;;;5052792;28;20188;-78
2023/04/16 07:26:05;;;;;;;2.38;2.28;;;12.80;99.90;;;;;;5051440;28;20190;-75
2023/04/16 07:28:31;;;;;;;1.75;1.75;;;13.20;99.90;;;;;;5047818;28;21529;-75
2023/04/16 07:30:57;;;;;;;2.00;1.90;;;13.50;99.90;;;;;;5050415;28;20216;-76
2023/04/16 07:33:23;;;;;;;2.17;2.08;;;13.80;99.90;;;;;;5045385;28;20537;-75
2023/04/16 07:35:50;;;;;;;1.85;1.80;;;14.40;99.90;;;;;;5055809;28;20223;-76
2023/04/16 07:38:15;;;;;;;1.60;1.60;;;14.70;99.90;;;;;;5051018;28;20207;-76
2023/04/16 07:40:41;;;;;;;1.88;1.77;;;14.50;99.90;;;;;;5052346;28;20187;-76
2023/04/16 07:43:07;;;;;;;1.63;1.60;;;14.30;99.90;;;;;;5051104;28;20663;-76
2023/04/16 07:45:32;;;;;;;1.40;1.40;;;14.10;99.90;;;;;;5054052;28;20200;-76
2023/04/16 07:47:58;;;;;;;1.50;1.40;;;14.50;99.90;;;;;;5052778;28;20183;-77
2023/04/16 07:50:24;;;;;;;1.30;1.30;;;14.60;99.90;;;;;;5035312;28;20212;-76
2023/04/16 07:52:49;;;;;;;1.58;1.58;;;14.90;99.90;;;;;;5050274;28;20508;-77
2023/04/16 07:55:15;;;;;;;1.40;1.30;;;14.50;99.90;;;;;;5054013;28;20742;-77
2023/04/16 07:57:41;;;;;;;1.20;1.20;;;14.60;99.90;;;;;;5049136;28;20215;-76
2023/04/16 08:00:08;;;;;;;1.50;1.50;;;14.80;99.90;;;;;;5034736;28;20234;-76
2023/04/16 08:02:33;;;;;;;1.77;1.50;;;14.50;99.90;;;;;;5052007;28;20635;-77
2023/04/16 08:04:59;;;;;;;1.25;1.25;;;14.60;99.90;;;;;;5053864;28;20203;-76
2023/04/16 08:07:25;;;;;;;1.40;1.30;;;14.70;99.90;;;;;;5051091;28;20180;-77
2023/04/16 08:09:51;;;;;;;1.80;1.70;;;14.80;99.90;;;;;;5050692;28;20180;-76
2023/04/16 08:12:17;;;;;;;1.35;1.35;;;15.30;99.90;;;;;;5046195;28;20183;-77
2023/04/16 08:14:44;;;;;;;1.30;1.30;;;15.30;99.90;;;;;;5053574;28;20204;-77
2023/04/16 08:17:10;;;;;;;2.45;1.42;;;15.40;99.90;;;;;;5050648;28;20215;-76
2023/04/16 08:19:36;;;;;;;1.40;1.40;;;15.60;99.90;;;;;;5048078;28;20168;-76
2023/04/16 08:22:02;;;;;;;1.15;1.15;;;15.50;99.90;;;;;;5049056;28;20198;-76
2023/04/16 08:24:27;;;;;;;1.25;1.25;;;15.40;99.90;;;;;;5051269;28;20680;-77
2023/04/16 08:26:53;;;;;;;1.67;1.58;;;14.90;99.90;;;;;;5054288;28;20208;-77
2023/04/16 08:29:19;;;;;;;1.77;1.67;;;14.80;99.90;;;;;;5050763;28;20188;-76
2023/04/16 08:31:45;;;;;;;1.77;1.67;;;14.80;99.90;;;;;;5051741;28;20176;-76
2023/04/16 08:34:11;;;;;;;1.65;1.60;;;14.70;99.90;;;;;;5045963;28;20274;-77
2023/04/16 08:36:37;;;;;;;1.70;1.60;;;14.50;99.90;;;;;;5053235;28;20211;-76
2023/04/16 08:39:04;;;;;;;1.73;1.67;;;14.30;99.90;;;;;;5049299;28;20226;-76
2023/04/16 08:41:31;;;;;;;1.58;1.58;;;14.10;99.90;;;;;;5054651;28;20172;-77
2023/04/16 08:43:59;;;;;;;1.50;1.50;;;14.00;99.90;;;;;;5052661;28;20207;-76
2023/04/16 08:46:28;;;;;;;1.50;1.50;;;14.00;99.90;;;;;;5050395;28;21325;-76
2023/04/16 08:48:55;;;;;;;1.55;1.55;;;14.00;99.90;;;;;;5048192;28;20176;-76
2023/04/16 08:51:22;;;;;;;1.75;1.65;;;14.20;99.90;;;;;;5051453;28;20661;-76
2023/04/16 08:53:52;;;;;;;1.50;1.50;;;14.30;99.90;;;;;;5038300;28;20275;-76
2023/04/16 08:56:21;;;;;;;1.60;1.60;;;14.20;99.90;;;;;;5060765;28;20300;-76
2023/04/16 08:58:49;;;;;;;1.98;1.88;;;14.20;99.90;;;;;;5042134;28;20287;-78
2023/04/16 09:01:16;;;;;;;1.85;1.80;;;14.20;99.90;;;;;;5050027;28;20168;-76
2023/04/16 09:03:46;;;;;;;1.70;1.60;;;14.20;99.90;;;;;;5046122;28;20191;-77
2023/04/16 09:06:13;;;;;;;1.42;1.40;;;14.30;99.90;;;;;;5048354;28;20172;-76
2023/04/16 09:08:40;;;;;;;1.42;1.42;;;14.50;99.90;;;;;;5051532;28;20647;-76
2023/04/16 09:11:06;;;;;;;1.85;1.25;;;14.40;99.90;;;;;;5034383;28;20663;-76
2023/04/16 09:13:32;;;;;;;1.60;1.50;;;14.50;99.90;;;;;;5052339;28;20254;-76
2023/04/16 09:15:58;;;;;;;1.50;1.50;;;14.70;99.90;;;;;;5051222;28;20199;-76
2023/04/16 09:18:24;;;;;;;1.75;1.65;;;14.90;99.90;;;;;;5037521;28;20179;-76
2023/04/16 09:20:50;;;;;;;1.60;1.60;;;15.20;99.90;;;;;;5048767;28;20188;-76
2023/04/16 09:23:17;;;;;;;1.50;1.50;;;15.10;99.90;;;;;;5046597;28;20168;-76
2023/04/16 09:25:43;;;;;;;1.60;1.50;;;15.20;99.90;;;;;;5056948;28;20204;-76
2023/04/16 09:28:09;;;;;;;1.63;1.55;;;14.90;99.90;;;;;;5044907;28;20194;-76
2023/04/16 09:30:36;;;;;;;2.05;1.95;;;14.80;99.90;;;;;;5053830;28;20262;-77
2023/04/16 09:33:16;;;;;;;1.42;1.42;;;14.10;99.90;;;;;;5051130;28;20198;-76
2023/04/16 09:35:50;;;;;;;1.38;1.38;;;13.90;99.90;;;;;;5050527;28;20329;-76
2023/04/16 09:38:16;;;;;;;1.80;1.70;;;13.50;99.90;;;;;;5054515;28;20192;-76
2023/04/16 09:40:42;;;;;;;1.83;1.80;;;13.40;99.90;;;;;;5036201;28;20654;-76
2023/04/16 09:43:16;;;;;;;1.40;1.40;;;13.40;99.90;;;;;;5050142;28;20180;-76
2023/04/16 09:45:51;;;;;;;1.30;1.30;;;13.30;99.90;;;;;;5043338;28;20210;-77
2023/04/16 09:48:33;;;;;;;1.52;1.52;;;13.10;99.90;;;;;;5046930;28;20569;-76
2023/04/16 09:50:59;;;;;;;1.48;1.48;;;13.00;99.90;;;;;;5053010;28;20215;-76
2023/04/16 09:53:29;;;;;;;1.20;1.20;;;12.80;99.90;;;;;;5026299;28;20184;-76
2023/04/16 09:56:00;;;;;;;1.40;1.30;;;12.50;99.90;;;;;;5049682;28;20203;-76
2023/04/16 09:58:26;;;;;;;1.77;1.67;;;12.60;99.90;;;;;;5047958;28;20255;-76
2023/04/16 10:00:59;;;;;;;1.38;1.38;;;12.70;99.90;;;;;;5050077;28;20187;-76
2023/04/16 10:03:32;;;;;;;1.75;1.65;;;12.80;99.90;;;;;;5046353;28;20169;-76
2023/04/16 10:06:18;;;;;;;1.92;1.83;;;12.80;99.90;;;;;;5050841;28;20630;-76
2023/04/16 10:08:47;;;;;;;1.45;1.40;;;12.60;99.90;;;;;;5052578;28;20186;-76
2023/04/16 10:11:14;;;;;;;2.00;1.90;;;12.80;99.90;;;;;;5040459;28;20551;-76
2023/04/16 10:13:40;;;;;;;2.20;2.10;;;13.00;99.90;;;;;;5045573;28;20187;-76
2023/04/16 10:16:07;;;;;;;1.63;1.52;;;13.10;99.90;;;;;;5035051;28;20200;-76
2023/04/16 10:18:38;;;;;;;1.70;1.60;;;13.20;99.90;;;;;;5049158;28;20171;-76
2023/04/16 10:21:05;;;;;;;1.95;1.85;;;13.30;99.90;;;;;;5039578;28;20196;-76
2023/04/16 10:23:34;;;;;;;1.52;1.52;;;13.50;99.90;;;;;;5053990;28;20226;-76
2023/04/16 10:26:00;;;;;;;1.50;1.50;;;13.60;99.90;;;;;;5050046;28;20247;-76
2023/04/16 10:28:28;;;;;;;1.52;1.50;;;13.70;99.90;;;;;;5050826;28;20179;-76
2023/04/16 10:30:55;;;;;;;1.23;1.23;;;13.80;99.90;;;;;;5047989;28;20576;-76
2023/04/16 10:33:24;;;;;;;1.55;1.45;;;14.00;99.90;;;;;;5049378;28;20185;-76
2023/04/16 10:36:05;;;;;;;1.75;1.67;;;14.30;99.90;;;;;;5057848;28;20226;-76
2023/04/16 10:38:31;;;;;;;1.55;1.55;;;14.40;99.90;;;;;;5052031;28;20824;-76
2023/04/16 10:41:04;;;;;;;2.08;1.60;;;14.80;99.90;;;;;;5047209;28;20191;-76
2023/04/16 10:43:31;;;;;;;1.40;1.40;;;14.70;99.90;;;;;;5056424;28;20184;-77
2023/04/16 10:46:20;;;;;;;1.45;1.40;;;14.60;99.90;;;;;;5049733;28;20286;-76
2023/04/16 10:48:47;;;;;;;1.90;1.80;;;14.90;99.90;;;;;;5050439;28;20191;-76
2023/04/16 10:51:31;;;;;;;1.85;1.75;;;15.40;99.90;;;;;;5049268;28;20261;-77
2023/04/16 10:54:13;;;;;;;1.50;1.50;;;15.80;99.90;;;;;;5048422;28;20207;-77
2023/04/16 10:56:39;;;;;;;1.48;1.48;;;16.30;99.90;;;;;;5033834;28;20254;-76
2023/04/16 10:59:09;;;;;;;1.70;1.60;;;16.00;99.90;;;;;;5056359;28;20262;-76
2023/04/16 11:01:37;;;;;;;1.20;1.20;;;16.30;99.90;;;;;;5055876;28;20184;-76
2023/04/16 11:04:36;;;;;;;2.38;1.40;;;16.50;99.90;;;;;;5050560;28;20211;-76
2023/04/16 11:07:03;;;;;;;1.80;1.70;;;17.20;99.90;;;;;;5009995;28;20199;-76
2023/04/16 11:09:55;;;;;;;1.63;1.52;;;17.20;99.90;;;;;;5051841;28;20674;-77
2023/04/16 11:12:36;;;;;;;1.40;1.40;;;17.80;99.90;;;;;;5051407;28;20263;-76
2023/04/16 11:15:05;;;;;;;1.70;1.60;;;18.60;98.50;;;;;;5055678;28;20697;-76
2023/04/16 11:17:51;;;;;;;1.88;1.77;;;19.30;97.10;;;;;;5052412;28;20676;-76
2023/04/16 11:20:21;;;;;;;1.80;1.70;;;20.10;93.30;;;;;;5051955;28;20207;-77
2023/04/16 11:22:55;;;;;;;1.85;1.85;;;20.20;91.90;;;;;;5056458;28;20178;-77
2023/04/16 11:25:25;;;;;;;1.67;1.60;;;19.80;90.70;;;;;;5052375;28;20200;-77
2023/04/16 11:27:51;;;;;;;2.20;2.10;;;19.10;92.30;;;;;;5053401;28;20188;-76
2023/04/16 11:30:18;;;;;;;1.85;1.75;;;19.50;90.60;;;;;;5052626;28;20187;-76
2023/04/16 11:32:44;;;;;;;2.08;1.98;;;19.90;88.30;;;;;;5054554;28;20191;-76
2023/04/16 11:35:16;;;;;;;1.80;1.80;;;20.10;87.30;;;;;;5050316;28;20200;-76
2023/04/16 11:37:42;;;;;;;1.88;1.77;;;19.70;87.90;;;;;;5054062;28;20561;-77
2023/04/16 11:40:09;;;;;;;1.60;1.58;;;19.30;90.50;;;;;;5050885;28;20255;-76
2023/04/16 11:42:36;;;;;;;1.58;1.50;;;19.40;88.70;;;;;;5049446;28;20215;-77
2023/04/16 11:45:02;;;;;;;2.03;1.98;;;19.90;88.00;;;;;;5056489;28;20192;-77
2023/04/16 11:47:30;;;;;;;1.65;1.65;;;18.90;86.40;;;;;;5049157;28;20187;-77
2023/04/16 11:49:56;;;;;;;2.00;1.90;;;18.50;89.80;;;;;;5055127;28;20259;-77
2023/04/16 11:52:29;;;;;;;1.77;1.77;;;18.60;90.70;;;;;;5046567;28;20215;-77
2023/04/16 11:54:56;;;;;;;2.20;2.10;;;19.70;90.10;;;;;;5058910;28;20199;-77
2023/04/16 11:57:30;;;;;;;2.20;2.10;;;19.60;88.50;;;;;;5039314;28;20192;-76
2023/04/16 11:59:57;;;;;;;1.67;1.58;;;18.90;90.20;;;;;;5050703;28;20229;-76
2023/04/16 12:02:39;;;;;;;1.90;1.80;;;18.60;88.80;;;;;;5052715;28;20206;-76
2023/04/16 12:05:25;;;;;;;1.98;1.88;;;19.10;85.50;;;;;;5049174;28;20208;-77
2023/04/16 12:07:51;;;;;;;1.50;1.50;;;19.20;85.50;;;;;;5052021;28;20176;-76
2023/04/16 12:10:16;;;;;;;1.52;1.50;;;20.20;83.00;;;;;;5052053;28;20278;-77
2023/04/16 12:12:42;;;;;;;1.80;1.80;;;19.90;84.30;;;;;;5056771;28;20207;-76
2023/04/16 12:15:08;;;;;;;1.67;1.67;;;19.80;86.50;;;;;;5051176;28;20640;-77
2023/04/16 12:17:34;;;;;;;1.83;1.73;;;20.20;85.00;;;;;;5050733;28;20172;-77
2023/04/16 12:20:05;;;;;;;1.60;1.60;;;20.10;84.20;;;;;;5049707;28;20253;-77
2023/04/16 12:22:36;;;;;;;1.48;1.48;;;19.70;84.10;;;;;;5053977;28;20191;-77
2023/04/16 12:25:06;;;;;;;1.50;1.50;;;20.70;84.20;;;;;;5050853;28;20203;-77
2023/04/16 12:27:46;;;;;;;1.48;1.48;;;22.50;77.80;;;;;;5050084;28;20185;-77
2023/04/16 12:30:13;;;;;;;1.50;1.50;;;22.90;77.50;;;;;;5035340;28;20207;-77
2023/04/16 12:32:40;;;;;;;1.70;1.60;;;23.20;73.80;;;;;;5053918;28;20206;-77
2023/04/16 12:35:06;;;;;;;1.50;1.50;;;23.30;75.70;;;;;;5047013;28;20214;-77
2023/04/16 12:37:32;;;;;;;1.15;1.15;;;25.30;68.80;;;;;;5047605;28;20596;-77
2023/04/16 12:39:58;;;;;;;1.35;1.35;;;24.90;65.50;;;;;;5047294;28;20172;-77
2023/04/16 12:42:23;;;;;;;2.03;1.60;;;26.10;61.60;;;;;;5046308;28;20180;-75
2023/04/16 12:44:49;;;;;;;1.45;1.45;;;25.90;61.80;;;;;;5048376;28;20196;-74
2023/04/16 12:47:14;;;;;;;1.95;1.85;;;26.00;60.40;;;;;;5052407;28;20193;-74
2023/04/16 12:49:40;;;;;;;1.40;1.40;;;26.60;58.60;;;;;;5053427;28;20268;-75
2023/04/16 12:52:06;;;;;;;1.80;1.80;;;25.10;59.80;;;;;;5058387;28;20250;-75